createdAt,value
2022-11-06T00:00:31.619Z,8.60
2022-11-06T00:03:00.033Z,8.56
2022-11-06T00:05:46.035Z,8.60
2022-11-06T00:08:14.511Z,8.56
2022-11-06T00:10:42.994Z,8.58
2022-11-06T00:13:12.246Z,8.57
2022-11-06T00:15:40.084Z,8.57
2022-11-06T00:18:08.001Z,8.59
2022-11-06T00:20:36.139Z,8.54
2022-11-06T00:23:03.987Z,8.47
2022-11-06T00:25:31.802Z,8.40
2022-11-06T00:27:59.669Z,8.44
2022-11-06T00:30:29.058Z,8.35
2022-11-06T00:32:57.276Z,8.37
2022-11-06T00:35:25.283Z,8.37
2022-11-06T00:37:53.148Z,8.40
2022-11-06T00:40:21.075Z,8.36
2022-11-06T00:42:48.870Z,8.33
2022-11-06T00:45:16.943Z,8.31
2022-11-06T00:47:46.232Z,8.28
2022-11-06T00:50:14.112Z,8.31
2022-11-06T00:52:41.940Z,8.26
2022-11-06T00:55:10.089Z,8.23
2022-11-06T00:57:38.155Z,8.25
2022-11-06T01:00:07.227Z,8.17
2022-11-06T01:02:35.137Z,8.24
2022-11-06T01:05:04.671Z,8.18
2022-11-06T01:07:32.522Z,8.18
2022-11-06T01:10:00.557Z,8.20
2022-11-06T01:12:28.372Z,8.16
2022-11-06T01:14:56.267Z,8.08
2022-11-06T01:17:24.125Z,8.18
2022-11-06T01:19:51.990Z,8.14
2022-11-06T01:22:21.278Z,8.09
2022-11-06T01:24:49.220Z,8.09
2022-11-06T01:27:32.354Z,8.03
2022-11-06T01:30:00.621Z,8.01
2022-11-06T01:32:28.416Z,8.00
2022-11-06T01:34:56.287Z,8.03
2022-11-06T01:37:25.457Z,8.05
2022-11-06T01:39:53.396Z,8.05
2022-11-06T01:42:21.866Z,8.02
2022-11-06T01:45:06.696Z,7.97
2022-11-06T01:47:34.707Z,8.01
2022-11-06T01:50:05.648Z,7.98
2022-11-06T01:52:35.565Z,7.96
2022-11-06T01:55:07.017Z,7.92
2022-11-06T01:57:35.120Z,8.08
2022-11-06T02:00:03.460Z,7.99
2022-11-06T02:02:31.696Z,7.94
2022-11-06T02:04:59.642Z,7.95
2022-11-06T02:07:27.623Z,7.97
2022-11-06T02:09:57.019Z,7.86
2022-11-06T02:12:31.446Z,7.88
2022-11-06T02:15:01.732Z,7.87
2022-11-06T02:17:37.205Z,7.82
2022-11-06T02:20:07.884Z,7.76
2022-11-06T02:22:52.251Z,7.83
2022-11-06T02:25:27.256Z,7.88
2022-11-06T02:28:03.124Z,7.99
2022-11-06T02:30:32.911Z,8.09
2022-11-06T02:33:02.341Z,8.15
2022-11-06T02:35:32.242Z,8.25
2022-11-06T02:38:02.655Z,8.26
2022-11-06T02:40:33.217Z,8.20
2022-11-06T02:43:05.467Z,8.21
2022-11-06T02:45:35.279Z,8.22
2022-11-06T02:48:06.724Z,8.14
2022-11-06T02:50:36.624Z,8.06
2022-11-06T02:53:06.129Z,7.98
2022-11-06T02:55:36.608Z,8.03
2022-11-06T02:58:09.056Z,7.98
2022-11-06T03:00:38.279Z,7.94
2022-11-06T03:03:07.620Z,7.91
2022-11-06T03:05:37.189Z,7.86
2022-11-06T03:08:09.476Z,7.87
2022-11-06T03:10:41.627Z,7.86
2022-11-06T03:13:15.750Z,7.85
2022-11-06T03:15:47.152Z,7.86
2022-11-06T03:18:18.409Z,7.87
2022-11-06T03:20:55.130Z,7.80
2022-11-06T03:23:25.738Z,7.74
2022-11-06T03:25:56.082Z,7.73
2022-11-06T03:28:29.410Z,7.78
2022-11-06T03:30:59.594Z,7.87
2022-11-06T03:33:31.594Z,7.84
2022-11-06T03:36:02.583Z,7.83
2022-11-06T03:38:32.630Z,7.85
2022-11-06T03:41:02.857Z,7.83
2022-11-06T03:43:35.644Z,7.81
2022-11-06T03:46:05.498Z,7.82
2022-11-06T03:48:35.415Z,7.75
2022-11-06T03:51:06.430Z,7.76
2022-11-06T03:53:38.056Z,7.82
2022-11-06T03:56:08.951Z,7.78
2022-11-06T03:58:40.655Z,7.90
2022-11-06T04:01:10.725Z,7.79
2022-11-06T04:03:40.525Z,7.91
2022-11-06T04:06:11.518Z,7.96
2022-11-06T04:08:57.348Z,8.00
2022-11-06T04:11:44.048Z,7.93
2022-11-06T04:14:14.922Z,7.94
2022-11-06T04:16:46.245Z,7.98
2022-11-06T04:19:15.268Z,8.00
2022-11-06T04:21:49.477Z,8.08
2022-11-06T04:24:41.763Z,8.06
2022-11-06T04:27:16.171Z,7.98
2022-11-06T04:29:49.894Z,7.98
2022-11-06T04:32:20.702Z,8.00
2022-11-06T04:34:51.843Z,7.94
2022-11-06T04:37:22.215Z,7.98
2022-11-06T04:39:55.724Z,7.95
2022-11-06T04:42:28.019Z,7.90
2022-11-06T04:44:59.800Z,7.93
2022-11-06T04:47:28.492Z,7.92
2022-11-06T04:49:59.052Z,7.86
2022-11-06T04:52:28.204Z,7.76
2022-11-06T04:54:57.070Z,7.87
2022-11-06T04:57:25.375Z,7.90
2022-11-06T04:59:53.864Z,7.84
2022-11-06T05:02:23.223Z,7.88
2022-11-06T05:04:51.284Z,7.87
2022-11-06T05:07:19.151Z,7.78
2022-11-06T05:09:46.973Z,7.92
2022-11-06T05:12:14.788Z,7.82
2022-11-06T05:14:42.594Z,7.94
2022-11-06T05:17:10.631Z,7.88
2022-11-06T05:19:39.873Z,7.89
2022-11-06T05:22:25.040Z,7.91
2022-11-06T05:24:53.132Z,7.84
2022-11-06T05:27:20.952Z,7.78
2022-11-06T05:29:48.796Z,7.72
2022-11-06T05:32:16.607Z,7.71
2022-11-06T05:34:45.928Z,7.72
2022-11-06T05:37:14.006Z,7.88
2022-11-06T05:39:42.224Z,7.92
2022-11-06T05:42:10.534Z,7.96
2022-11-06T05:44:38.756Z,7.90
2022-11-06T05:47:06.571Z,7.82
2022-11-06T05:49:34.515Z,7.79
2022-11-06T05:52:03.719Z,7.77
2022-11-06T05:54:31.577Z,7.72
2022-11-06T05:56:59.440Z,7.63
2022-11-06T05:59:27.501Z,7.62
2022-11-06T06:01:55.704Z,7.54
2022-11-06T06:04:23.667Z,7.51
2022-11-06T06:06:51.496Z,7.52
2022-11-06T06:09:20.676Z,7.57
2022-11-06T06:11:51.367Z,7.57
2022-11-06T06:14:19.637Z,7.48
2022-11-06T06:16:47.537Z,7.36
2022-11-06T06:19:15.833Z,7.36
2022-11-06T06:21:43.742Z,7.35
2022-11-06T06:24:11.640Z,7.42
2022-11-06T06:26:41.026Z,7.39
2022-11-06T06:29:08.935Z,7.42
2022-11-06T06:31:36.826Z,7.32
2022-11-06T06:34:04.698Z,7.34
2022-11-06T06:36:32.537Z,7.40
2022-11-06T06:39:00.537Z,7.44
2022-11-06T06:41:28.345Z,7.51
2022-11-06T06:43:57.593Z,7.49
2022-11-06T06:46:25.555Z,7.47
2022-11-06T06:48:53.425Z,7.44
2022-11-06T06:51:24.217Z,7.52
2022-11-06T06:53:52.710Z,7.54
2022-11-06T06:56:20.603Z,7.76
2022-11-06T06:58:48.603Z,8.65
2022-11-06T07:01:17.890Z,9.63
2022-11-06T07:03:45.748Z,10.51
2022-11-06T07:06:13.727Z,11.33
2022-11-06T07:08:41.523Z,11.95
2022-11-06T07:11:10.098Z,12.77
2022-11-06T07:13:38.011Z,13.34
2022-11-06T07:16:06.356Z,13.26
2022-11-06T07:18:36.130Z,13.53
2022-11-06T07:21:05.478Z,13.91
2022-11-06T07:23:33.640Z,14.33
2022-11-06T07:26:01.514Z,14.95
2022-11-06T07:28:29.413Z,14.58
2022-11-06T07:30:59.172Z,14.84
2022-11-06T07:33:27.018Z,15.36
2022-11-06T07:35:56.201Z,14.98
2022-11-06T07:38:24.030Z,15.87
2022-11-06T07:40:51.836Z,16.34
2022-11-06T07:43:19.824Z,15.87
2022-11-06T07:45:47.716Z,16.37
2022-11-06T07:48:16.514Z,16.07
2022-11-06T07:50:45.431Z,17.01
2022-11-06T07:53:14.983Z,15.49
2022-11-06T07:55:48.795Z,17.12
2022-11-06T07:58:17.049Z,15.96
2022-11-06T08:00:48.498Z,16.83
2022-11-06T08:03:17.088Z,17.42
2022-11-06T08:05:45.549Z,16.94
2022-11-06T08:08:15.106Z,16.92
2022-11-06T08:10:43.580Z,17.94
2022-11-06T08:13:11.821Z,18.88
2022-11-06T08:15:40.213Z,17.76
2022-11-06T08:18:09.051Z,19.16
2022-11-06T08:20:37.432Z,19.63
2022-11-06T08:23:06.297Z,18.96
2022-11-06T08:25:36.078Z,19.44
2022-11-06T08:28:04.661Z,19.83
2022-11-06T08:30:33.020Z,20.98
2022-11-06T08:33:01.957Z,22.02
2022-11-06T08:35:29.927Z,21.23
2022-11-06T08:37:57.742Z,19.84
2022-11-06T08:40:30.677Z,20.92
2022-11-06T08:43:03.860Z,21.58
2022-11-06T08:45:32.352Z,22.04
2022-11-06T08:48:02.197Z,23.73
2022-11-06T08:50:30.047Z,22.55
2022-11-06T08:52:57.889Z,23.07
2022-11-06T08:55:26.453Z,22.32
2022-11-06T08:57:55.250Z,19.41
2022-11-06T09:00:24.832Z,21.62
2022-11-06T09:02:52.756Z,20.56
2022-11-06T09:05:20.619Z,21.82
2022-11-06T09:07:48.454Z,22.10
2022-11-06T09:10:16.839Z,20.91
2022-11-06T09:12:45.373Z,19.97
2022-11-06T09:15:13.176Z,21.75
2022-11-06T09:17:45.339Z,20.55
2022-11-06T09:20:13.870Z,20.33
2022-11-06T09:22:42.318Z,18.14
2022-11-06T09:25:10.579Z,16.95
2022-11-06T09:27:45.057Z,15.82
2022-11-06T09:30:14.553Z,15.77
2022-11-06T09:32:47.805Z,14.84
2022-11-06T09:35:15.976Z,14.26
2022-11-06T09:37:44.861Z,13.36
2022-11-06T09:40:19.108Z,13.15
2022-11-06T09:42:51.522Z,13.03
2022-11-06T09:45:22.751Z,12.73
2022-11-06T09:47:55.380Z,12.74
2022-11-06T09:50:26.823Z,12.55
2022-11-06T09:53:04.628Z,12.62
2022-11-06T09:55:36.761Z,12.68
2022-11-06T09:58:10.803Z,12.88
2022-11-06T10:00:39.495Z,12.58
2022-11-06T10:03:13.501Z,12.84
2022-11-06T10:05:42.227Z,13.60
2022-11-06T10:08:15.332Z,15.40
2022-11-06T10:10:47.661Z,17.69
2022-11-06T10:13:22.186Z,19.38
2022-11-06T10:15:53.986Z,17.39
2022-11-06T10:18:30.425Z,18.86
2022-11-06T10:21:05.469Z,21.49
2022-11-06T10:23:39.056Z,22.04
2022-11-06T10:26:10.753Z,21.38
2022-11-06T10:28:47.550Z,20.49
2022-11-06T10:31:21.798Z,19.51
2022-11-06T10:33:56.210Z,17.70
2022-11-06T10:36:26.024Z,17.13
2022-11-06T10:38:56.069Z,16.02
2022-11-06T10:41:25.583Z,17.39
2022-11-06T10:43:54.948Z,17.98
2022-11-06T10:46:27.836Z,18.76
2022-11-06T10:48:59.318Z,19.31
2022-11-06T10:51:41.818Z,18.93
2022-11-06T10:54:20.299Z,17.97
2022-11-06T10:56:56.975Z,18.40
2022-11-06T10:59:25.149Z,18.85
2022-11-06T11:01:53.096Z,20.85
2022-11-06T11:04:22.407Z,19.64
2022-11-06T11:06:50.240Z,18.21
2022-11-06T11:09:28.692Z,17.43
2022-11-06T11:11:57.295Z,17.45
2022-11-06T11:14:26.032Z,16.72
2022-11-06T11:16:54.309Z,16.45
2022-11-06T11:19:27.886Z,16.20
2022-11-06T11:21:57.234Z,15.30
2022-11-06T11:24:29.197Z,14.61
2022-11-06T11:27:00.930Z,16.88
2022-11-06T11:29:30.712Z,20.18
2022-11-06T11:32:00.611Z,19.40
2022-11-06T11:34:31.784Z,17.36
2022-11-06T11:37:01.092Z,16.64
2022-11-06T11:39:30.851Z,15.92
2022-11-06T11:42:13.555Z,14.85
2022-11-06T11:44:41.640Z,14.25
2022-11-06T11:47:20.600Z,14.04
2022-11-06T11:49:49.954Z,14.80
2022-11-06T11:52:20.179Z,14.38
2022-11-06T11:54:49.425Z,13.89
2022-11-06T11:57:19.493Z,13.47
2022-11-06T11:59:48.321Z,13.41
2022-11-06T12:02:27.691Z,14.40
2022-11-06T12:04:59.032Z,17.27
2022-11-06T12:07:28.130Z,16.67
2022-11-06T12:09:56.007Z,15.46
2022-11-06T12:12:25.003Z,14.90
2022-11-06T12:15:13.603Z,14.08
2022-11-06T12:17:44.244Z,13.94
2022-11-06T12:20:18.021Z,14.01
2022-11-06T12:22:47.661Z,13.82
2022-11-06T12:25:17.625Z,14.14
2022-11-06T12:27:47.577Z,14.33
2022-11-06T12:30:17.488Z,14.88
2022-11-06T12:33:02.435Z,16.12
2022-11-06T12:35:32.609Z,15.66
2022-11-06T12:38:08.068Z,15.14
2022-11-06T12:40:38.786Z,14.89
2022-11-06T12:43:12.971Z,14.65
2022-11-06T12:45:48.773Z,14.19
2022-11-06T12:48:26.611Z,13.98
2022-11-06T12:51:00.481Z,13.85
2022-11-06T12:53:37.963Z,13.51
2022-11-06T12:56:13.887Z,13.29
2022-11-06T12:58:52.386Z,13.05
2022-11-06T13:01:26.316Z,13.11
2022-11-06T13:04:04.529Z,12.91
2022-11-06T13:06:40.253Z,12.96
2022-11-06T13:09:12.444Z,12.78
2022-11-06T13:11:43.666Z,12.72
2022-11-06T13:14:16.551Z,12.70
2022-11-06T13:16:49.072Z,12.72
2022-11-06T13:19:22.322Z,12.92
2022-11-06T13:22:06.120Z,12.92
2022-11-06T13:24:37.774Z,12.87
2022-11-06T13:27:09.940Z,12.60
2022-11-06T13:29:38.678Z,12.60
2022-11-06T13:32:10.492Z,12.57
2022-11-06T13:34:39.564Z,12.52
2022-11-06T13:37:13.467Z,12.43
2022-11-06T13:39:43.790Z,12.50
2022-11-06T13:42:21.216Z,12.44
2022-11-06T13:44:49.671Z,12.47
2022-11-06T13:47:19.308Z,12.29
2022-11-06T13:49:52.784Z,12.06
2022-11-06T13:52:26.881Z,12.20
2022-11-06T13:55:03.610Z,12.29
2022-11-06T13:57:40.779Z,12.16
2022-11-06T14:00:13.760Z,12.15
2022-11-06T14:03:02.667Z,12.05
2022-11-06T14:05:45.320Z,12.01
2022-11-06T14:08:17.446Z,11.94
2022-11-06T14:10:51.083Z,11.88
2022-11-06T14:13:24.402Z,11.77
2022-11-06T14:15:59.699Z,11.70
2022-11-06T14:18:27.866Z,11.70
2022-11-06T14:21:10.579Z,11.66
2022-11-06T14:23:53.784Z,11.70
2022-11-06T14:26:36.711Z,11.65
2022-11-06T14:29:19.626Z,11.60
2022-11-06T14:32:10.254Z,11.63
2022-11-06T14:34:38.973Z,11.55
2022-11-06T14:37:31.395Z,11.48
2022-11-06T14:40:07.429Z,11.56
2022-11-06T14:42:37.482Z,11.62
2022-11-06T14:45:11.915Z,11.60
2022-11-06T14:47:40.994Z,11.63
2022-11-06T14:50:23.766Z,11.64
2022-11-06T14:52:55.653Z,11.62
2022-11-06T14:55:28.305Z,11.64
2022-11-06T14:57:58.317Z,11.64
2022-11-06T15:00:47.079Z,11.59
2022-11-06T15:03:21.403Z,11.58
2022-11-06T15:05:52.787Z,11.59
2022-11-06T15:08:39.482Z,11.55
2022-11-06T15:11:09.187Z,11.55
2022-11-06T15:13:36.991Z,11.56
2022-11-06T15:16:07.689Z,11.53
2022-11-06T15:18:39.817Z,11.57
2022-11-06T15:21:09.369Z,11.52
2022-11-06T15:23:41.710Z,11.49
2022-11-06T15:26:18.500Z,11.43
2022-11-06T15:28:48.158Z,11.41
2022-11-06T15:31:18.076Z,11.42
2022-11-06T15:33:55.908Z,11.37
2022-11-06T15:36:24.548Z,11.34
2022-11-06T15:38:54.868Z,11.39
2022-11-06T15:41:25.654Z,11.35
2022-11-06T15:43:55.639Z,11.30
2022-11-06T15:46:25.006Z,11.37
2022-11-06T15:49:10.079Z,11.34
2022-11-06T15:51:39.347Z,11.36
2022-11-06T15:54:07.626Z,11.28
2022-11-06T15:56:36.977Z,11.13
2022-11-06T15:59:05.899Z,10.91
2022-11-06T16:01:34.492Z,10.80
2022-11-06T16:04:05.592Z,10.70
2022-11-06T16:06:37.352Z,10.49
2022-11-06T16:09:05.556Z,10.17
2022-11-06T16:11:33.594Z,9.88
2022-11-06T16:14:02.819Z,9.69
2022-11-06T16:16:33.742Z,9.50
2022-11-06T16:19:02.549Z,9.29
2022-11-06T16:21:31.827Z,9.20
2022-11-06T16:24:00.837Z,9.14
2022-11-06T16:26:36.413Z,9.03
2022-11-06T16:29:09.993Z,8.95
2022-11-06T16:31:38.212Z,8.83
2022-11-06T16:34:06.960Z,8.82
2022-11-06T16:36:50.129Z,8.77
2022-11-06T16:39:49.826Z,8.73
2022-11-06T16:42:29.151Z,8.67
2022-11-06T16:45:10.021Z,8.58
2022-11-06T16:47:38.030Z,8.51
2022-11-06T16:50:26.104Z,8.40
2022-11-06T16:52:55.571Z,8.47
2022-11-06T16:55:26.739Z,8.37
2022-11-06T16:57:57.042Z,8.39
2022-11-06T17:00:28.045Z,8.25
2022-11-06T17:02:56.846Z,8.28
2022-11-06T17:05:29.025Z,8.24
2022-11-06T17:08:08.269Z,8.25
2022-11-06T17:10:38.233Z,8.28
2022-11-06T17:13:14.681Z,8.28
2022-11-06T17:15:43.014Z,8.32
2022-11-06T17:18:17.771Z,8.44
2022-11-06T17:20:51.184Z,8.63
2022-11-06T17:23:21.169Z,8.74
2022-11-06T17:25:52.328Z,8.82
2022-11-06T17:28:23.123Z,8.88
2022-11-06T17:30:51.270Z,8.92
2022-11-06T17:33:21.099Z,8.97
2022-11-06T17:35:50.226Z,9.04
2022-11-06T17:38:18.523Z,9.03
2022-11-06T17:40:47.830Z,9.00
2022-11-06T17:43:18.355Z,9.09
2022-11-06T17:45:49.704Z,9.06
2022-11-06T17:48:18.349Z,9.10
2022-11-06T17:51:03.569Z,9.10
2022-11-06T17:53:32.432Z,9.11
2022-11-06T17:56:04.496Z,9.14
2022-11-06T17:58:32.588Z,9.15
2022-11-06T18:01:05.424Z,9.18
2022-11-06T18:03:36.475Z,9.17
2022-11-06T18:06:26.629Z,9.16
2022-11-06T18:08:57.969Z,9.15
2022-11-06T18:11:42.179Z,9.13
2022-11-06T18:14:10.924Z,9.10
2022-11-06T18:16:43.605Z,9.15
2022-11-06T18:19:13.366Z,9.18
2022-11-06T18:21:41.188Z,9.15
2022-11-06T18:24:09.257Z,9.20
2022-11-06T18:26:38.432Z,9.23
2022-11-06T18:29:06.874Z,9.25
2022-11-06T18:31:34.850Z,9.26
2022-11-06T18:34:02.870Z,9.34
2022-11-06T18:36:32.202Z,9.38
2022-11-06T18:39:00.050Z,9.39
2022-11-06T18:41:27.857Z,9.40
2022-11-06T18:43:57.986Z,9.41
2022-11-06T18:46:27.212Z,9.46
2022-11-06T18:48:56.159Z,9.40
2022-11-06T18:51:34.380Z,9.39
2022-11-06T18:54:05.478Z,9.40
2022-11-06T18:56:35.748Z,9.46
2022-11-06T18:59:05.363Z,9.49
2022-11-06T19:01:34.620Z,9.47
2022-11-06T19:04:04.323Z,9.48
2022-11-06T19:06:32.558Z,9.52
2022-11-06T19:09:00.402Z,9.58
2022-11-06T19:11:28.393Z,9.59
2022-11-06T19:13:56.209Z,9.59
2022-11-06T19:16:25.523Z,9.66
2022-11-06T19:21:29.590Z,9.71
2022-11-06T19:24:05.646Z,9.73
2022-11-06T19:26:35.192Z,9.69
2022-11-06T19:29:03.358Z,9.73
2022-11-06T19:31:45.091Z,9.81
2022-11-06T19:34:13.643Z,9.80
2022-11-06T19:36:41.712Z,9.75
2022-11-06T19:39:09.510Z,9.79
2022-11-06T19:41:37.448Z,9.73
2022-11-06T19:44:05.838Z,9.76
2022-11-06T19:46:36.068Z,9.81
2022-11-06T19:49:06.188Z,9.78
2022-11-06T19:51:34.352Z,9.77
2022-11-06T19:54:04.951Z,9.77
2022-11-06T19:56:33.124Z,9.77
2022-11-06T19:59:01.938Z,9.77
2022-11-06T20:01:29.938Z,9.77
2022-11-06T20:03:59.245Z,9.90
2022-11-06T20:06:29.160Z,9.83
2022-11-06T20:09:01.353Z,9.87
2022-11-06T20:11:29.432Z,9.92
2022-11-06T20:13:57.222Z,9.94
2022-11-06T20:16:25.201Z,9.93
2022-11-06T20:18:53.601Z,9.93
2022-11-06T20:21:22.204Z,10.02
2022-11-06T20:23:51.395Z,9.99
2022-11-06T20:26:19.697Z,10.01
2022-11-06T20:28:48.431Z,10.04
2022-11-06T20:31:18.488Z,10.01
2022-11-06T20:33:46.782Z,9.99
2022-11-06T20:36:16.553Z,9.97
2022-11-06T20:38:45.620Z,10.01
2022-11-06T20:41:15.212Z,10.00
2022-11-06T20:43:43.646Z,9.98
2022-11-06T20:46:13.092Z,10.00
2022-11-06T20:48:40.998Z,10.01
2022-11-06T20:51:09.774Z,10.06
2022-11-06T20:53:39.083Z,10.02
2022-11-06T20:56:07.742Z,10.03
2022-11-06T20:58:37.172Z,10.04
2022-11-06T21:01:05.865Z,10.00
2022-11-06T21:03:34.202Z,9.99
2022-11-06T21:06:02.184Z,10.02
2022-11-06T21:08:30.351Z,10.03
2022-11-06T21:11:04.870Z,10.08
2022-11-06T21:13:34.983Z,10.09
2022-11-06T21:16:05.157Z,10.07
2022-11-06T21:18:35.521Z,10.11
2022-11-06T21:21:03.720Z,10.10
2022-11-06T21:23:31.606Z,10.10
2022-11-06T21:26:03.923Z,10.10
2022-11-06T21:28:33.292Z,10.12
2022-11-06T21:31:01.213Z,10.13
2022-11-06T21:33:30.469Z,10.18
2022-11-06T21:36:05.118Z,10.09
2022-11-06T21:38:33.516Z,10.16
2022-11-06T21:41:01.485Z,10.19
2022-11-06T21:43:29.649Z,10.19
2022-11-06T21:45:57.489Z,10.22
2022-11-06T21:48:45.339Z,10.24
2022-11-06T21:51:15.387Z,10.21
2022-11-06T21:54:00.604Z,10.20
2022-11-06T21:56:28.632Z,10.24
2022-11-06T21:58:57.842Z,10.30
2022-11-06T22:01:26.152Z,10.27
2022-11-06T22:03:54.268Z,10.28
2022-11-06T22:06:25.109Z,10.29
2022-11-06T22:08:53.681Z,10.33
2022-11-06T22:11:23.575Z,10.34
2022-11-06T22:13:52.244Z,10.37
2022-11-06T22:16:21.431Z,10.37
2022-11-06T22:18:49.545Z,10.39
2022-11-06T22:21:21.107Z,10.39
2022-11-06T22:23:50.681Z,10.38
2022-11-06T22:26:22.959Z,10.42
2022-11-06T22:28:53.569Z,10.44
2022-11-06T22:31:21.633Z,10.42
2022-11-06T22:33:53.720Z,10.37
2022-11-06T22:36:23.492Z,10.45
2022-11-06T22:38:53.235Z,10.43
2022-11-06T22:41:22.413Z,10.46
2022-11-06T22:43:50.628Z,10.41
2022-11-06T22:46:20.637Z,10.43
2022-11-06T22:51:57.044Z,10.39
2022-11-06T22:54:29.926Z,10.36
2022-11-06T22:57:01.443Z,10.44
2022-11-06T22:59:29.685Z,10.42
2022-11-06T23:01:57.709Z,10.40
2022-11-06T23:04:26.258Z,10.40
2022-11-06T23:06:55.619Z,10.44
2022-11-06T23:09:30.114Z,10.46
2022-11-06T23:11:58.562Z,10.43
2022-11-06T23:14:26.787Z,10.39
2022-11-06T23:17:00.833Z,10.35
2022-11-06T23:19:30.820Z,10.37
2022-11-06T23:22:15.717Z,10.42
2022-11-06T23:24:45.435Z,10.48
2022-11-06T23:27:13.507Z,10.52
2022-11-06T23:29:41.381Z,10.58
2022-11-06T23:32:11.568Z,10.57
2022-11-06T23:34:40.934Z,10.62
2022-11-06T23:37:09.024Z,10.65
2022-11-06T23:39:37.132Z,10.65
2022-11-06T23:42:06.540Z,10.66
2022-11-06T23:44:51.813Z,10.64
2022-11-06T23:47:19.930Z,10.67
2022-11-06T23:49:47.848Z,10.70
2022-11-06T23:52:15.874Z,10.70
2022-11-06T23:54:44.032Z,10.75
2022-11-06T23:57:13.795Z,10.74
2022-11-06T23:59:41.843Z,10.76
